Malibu, CA

5:21 PM PDT on August 21, 2014 (GMT -0700)
MesoWest Circle X Ranch CA US LOXWFO | Change Station
CLOSE
Current Station
Personal Weather Station
Location: Westlake Village, CA
Elevation: 1700 ft
Nearby Weather Stations

Elev 1700 ft 34.11 °N, 118.94 °W | Updated 49 minutes ago

Clear
Clear
78 °F
Feels Like 80 °F
N
Wind Variable Wind from West
Gusts 7.0 mph

Today
High -- | Low -- °F
--% Chance of Precip.
Yesterday
High -- | Low -- °F
Precip. -- in
6:21 AM 7:35 PM
Waning Crescent, 11% visible
Pressure 29.90 in
Visibility 10.0 miles
Clouds Clear
Heat Index 80 °F
Dew Point 65 °F
Humidity 64%
Rainfall 0.00 in
Snow Depth Not available.
UV 3 out of 12
Pollen 5.40 out of 12
Ozone Good
Flu Activity Not available.
METAR KCMA 212355Z 25007KT 10SM CLR 24/14 A2990 RMK AO2 SLPNO 6//// T02440144 56013

More Conditions Fewer Conditions

Pressure 29.90 in
Visibility 10.0 miles
Clouds Clear
Heat Index 80 °F
Dew Point 65 °F
Humidity 64%
Rainfall 0.00 in
Snow Depth Not available.
UV 3 out of 12
Pollen 5.40 out of 12
Ozone Good
Flu Activity Not available.
METAR KCMA 212355Z 25007KT 10SM CLR 24/14 A2990 RMK AO2 SLPNO 6//// T02440144 56013

More Conditions Fewer Conditions

10-Day Weather Forecast

Almanac

Astronomy

Aug. 21, 2014 Rise Set
Actual Time 6:21 AM PDT 7:35 PM PDT
Civil Twilight 5:55 AM PDT 8:01 PM PDT
Nautical Twilight 5:24 AM PDT 8:32 PM PDT
Astronomical Twilight 4:51 AM PDT 9:04 PM PDT
Moon 3:00 AM PDT (8/21) 5:04 PM PDT (8/21)
Length of Visible Light 14h 06m
Length of Day
13h 14m
Tomorrow will be 1m 57s shorter.
Waning Crescent, 11% of the Moon is Illuminated
Today
Waning Crescent
Aug 25
New
Sep 2
First Quarter
Sep 8
Full
Sep 15
Last Quarter

Today's Extremes

State Highs State Lows

Community

WunderPhotos

Upload Photos

1,746,075 photos uploaded!

Nearby

Air Quality

  Air Quality AQ Index Pollutant
Yesterday Good
OZONE
Current Good
OZONE
Thursday Good
OZONE
Thursday Good
PM2.5
Friday Good
OZONE
Friday Good
PM2.5
Saturday Good
OZONE
Saturday Good
PM2.5
Sunday Moderate
PM2.5
Sunday Good
OZONE
Monday Moderate
PM2.5
Monday Good
OZONE
Tuesday Good
OZONE
Tuesday Good
PM2.5

Snow Depth

Station Depth Elevation
Leavitt Meadows 0 in 7200 ft
CSS Lab 0 in 6900 ft
Adin Mountain 0 in 6200 ft

Earthquake Activity

City Distance Mag. Time & Date
Malibu Beach, California 16 miles 3.4 10:03 AM PDT
2014-08-15
Kettleman City, California 147 miles 2.9 11:32 PM PDT
2014-08-14
Minimum magnitude displayed is 2.5.

Coastal Water Temperatures

Place Temperature
Santa Monica Pier 72.0 °F
Los Angeles, CA 68.0 °F
La Jolla, CA 68.0 °F

Nearby Weather Stations